sensor_id;sensor_type;location;lat;lon;timestamp;temperature;humidity
48686;DHT22;34485;51.536;3.816;2023-11-22T00:00:10;6.20;99.90
48686;DHT22;34485;51.536;3.816;2023-11-22T00:02:37;6.20;99.90
48686;DHT22;34485;51.536;3.816;2023-11-22T00:05:04;6.10;99.90
48686;DHT22;34485;51.536;3.816;2023-11-22T00:07:33;6.00;99.90
48686;DHT22;34485;51.536;3.816;2023-11-22T00:09:59;6.00;99.90
48686;DHT22;34485;51.536;3.816;2023-11-22T00:12:27;5.90;99.90
48686;DHT22;34485;51.536;3.816;2023-11-22T00:14:53;5.80;99.90
48686;DHT22;34485;51.536;3.816;2023-11-22T00:17:19;5.80;99.90
48686;DHT22;34485;51.536;3.816;2023-11-22T00:22:11;5.80;99.90
48686;DHT22;34485;51.536;3.816;2023-11-22T00:24:43;5.90;99.90
48686;DHT22;34485;51.536;3.816;2023-11-22T00:27:11;5.90;99.90
48686;DHT22;34485;51.536;3.816;2023-11-22T00:29:40;5.80;99.90
48686;DHT22;34485;51.536;3.816;2023-11-22T00:32:06;5.80;99.90
48686;DHT22;34485;51.536;3.816;2023-11-22T00:34:33;5.70;99.90
48686;DHT22;34485;51.536;3.816;2023-11-22T00:36:58;5.60;99.90
48686;DHT22;34485;51.536;3.816;2023-11-22T00:39:24;5.70;99.90
48686;DHT22;34485;51.536;3.816;2023-11-22T00:41:49;5.70;99.90
48686;DHT22;34485;51.536;3.816;2023-11-22T00:44:15;5.60;99.90
48686;DHT22;34485;51.536;3.816;2023-11-22T00:46:41;5.50;99.90
48686;DHT22;34485;51.536;3.816;2023-11-22T00:49:07;5.50;99.90
48686;DHT22;34485;51.536;3.816;2023-11-22T00:51:35;5.40;99.90
48686;DHT22;34485;51.536;3.816;2023-11-22T00:54:01;5.40;99.90
48686;DHT22;34485;51.536;3.816;2023-11-22T00:56:27;5.40;99.90
48686;DHT22;34485;51.536;3.816;2023-11-22T00:58:53;5.30;99.90
48686;DHT22;34485;51.536;3.816;2023-11-22T01:01:22;5.30;99.90
48686;DHT22;34485;51.536;3.816;2023-11-22T01:03:47;5.30;99.90
48686;DHT22;34485;51.536;3.816;2023-11-22T01:06:13;5.30;99.90
48686;DHT22;34485;51.536;3.816;2023-11-22T01:08:39;5.20;99.90
48686;DHT22;34485;51.536;3.816;2023-11-22T01:11:05;5.20;99.90
48686;DHT22;34485;51.536;3.816;2023-11-22T01:13:33;5.10;99.90
48686;DHT22;34485;51.536;3.816;2023-11-22T01:16:09;5.10;99.90
48686;DHT22;34485;51.536;3.816;2023-11-22T01:18:35;5.10;99.90
48686;DHT22;34485;51.536;3.816;2023-11-22T01:21:04;5.10;99.90
48686;DHT22;34485;51.536;3.816;2023-11-22T01:23:30;5.10;99.90
48686;DHT22;34485;51.536;3.816;2023-11-22T01:25:57;5.10;99.90
48686;DHT22;34485;51.536;3.816;2023-11-22T01:28:24;5.00;99.90
48686;DHT22;34485;51.536;3.816;2023-11-22T01:33:18;5.00;99.90
48686;DHT22;34485;51.536;3.816;2023-11-22T01:38:10;4.90;99.90
48686;DHT22;34485;51.536;3.816;2023-11-22T01:43:05;4.90;99.90
48686;DHT22;34485;51.536;3.816;2023-11-22T01:45:31;5.00;99.90
48686;DHT22;34485;51.536;3.816;2023-11-22T01:47:57;5.00;99.90
48686;DHT22;34485;51.536;3.816;2023-11-22T01:50:23;5.00;99.90
48686;DHT22;34485;51.536;3.816;2023-11-22T01:52:49;5.00;99.90
48686;DHT22;34485;51.536;3.816;2023-11-22T04:34:00;5.90;99.90
48686;DHT22;34485;51.536;3.816;2023-11-22T04:36:26;5.90;99.90
48686;DHT22;34485;51.536;3.816;2023-11-22T04:38:51;5.90;99.90
48686;DHT22;34485;51.536;3.816;2023-11-22T04:41:17;5.90;99.90
48686;DHT22;34485;51.536;3.816;2023-11-22T04:43:43;5.90;99.90
48686;DHT22;34485;51.536;3.816;2023-11-22T04:46:10;5.90;99.90
48686;DHT22;34485;51.536;3.816;2023-11-22T04:48:35;5.90;99.90
48686;DHT22;34485;51.536;3.816;2023-11-22T04:51:02;5.90;99.90
48686;DHT22;34485;51.536;3.816;2023-11-22T04:53:28;5.90;99.90
48686;DHT22;34485;51.536;3.816;2023-11-22T09:00:31;6.80;99.90
48686;DHT22;34485;51.536;3.816;2023-11-22T09:02:57;6.90;99.90
48686;DHT22;34485;51.536;3.816;2023-11-22T09:05:23;6.90;99.90
48686;DHT22;34485;51.536;3.816;2023-11-22T09:07:49;7.00;99.90
48686;DHT22;34485;51.536;3.816;2023-11-22T09:10:16;7.00;99.90
48686;DHT22;34485;51.536;3.816;2023-11-22T09:12:44;7.10;99.90
48686;DHT22;34485;51.536;3.816;2023-11-22T09:15:11;7.20;99.90
48686;DHT22;34485;51.536;3.816;2023-11-22T10:21:29;8.40;99.90
48686;DHT22;34485;51.536;3.816;2023-11-22T10:24:01;8.70;99.90
48686;DHT22;34485;51.536;3.816;2023-11-22T10:26:28;8.90;99.90
48686;DHT22;34485;51.536;3.816;2023-11-22T10:28:55;9.20;99.90
48686;DHT22;34485;51.536;3.816;2023-11-22T10:31:22;9.50;99.90
48686;DHT22;34485;51.536;3.816;2023-11-22T10:38:45;9.60;99.90
48686;DHT22;34485;51.536;3.816;2023-11-22T10:41:11;9.50;99.90
48686;DHT22;34485;51.536;3.816;2023-11-22T10:43:39;9.50;99.90
48686;DHT22;34485;51.536;3.816;2023-11-22T10:46:07;9.40;99.90
48686;DHT22;34485;51.536;3.816;2023-11-22T10:48:35;9.20;99.90
48686;DHT22;34485;51.536;3.816;2023-11-22T10:51:02;9.00;99.90
48686;DHT22;34485;51.536;3.816;2023-11-22T10:53:36;9.10;99.90
48686;DHT22;34485;51.536;3.816;2023-11-22T10:56:11;9.00;99.90
48686;DHT22;34485;51.536;3.816;2023-11-22T10:58:51;8.90;99.90
48686;DHT22;34485;51.536;3.816;2023-11-22T11:01:18;8.90;99.90
48686;DHT22;34485;51.536;3.816;2023-11-22T11:04:14;9.00;99.90
48686;DHT22;34485;51.536;3.816;2023-11-22T11:06:44;9.10;99.90
48686;DHT22;34485;51.536;3.816;2023-11-22T11:09:12;9.30;99.90
48686;DHT22;34485;51.536;3.816;2023-11-22T11:11:40;9.40;99.90
48686;DHT22;34485;51.536;3.816;2023-11-22T11:14:08;9.60;99.90
48686;DHT22;34485;51.536;3.816;2023-11-22T11:16:37;9.50;99.90
48686;DHT22;34485;51.536;3.816;2023-11-22T11:19:04;9.40;99.90
48686;DHT22;34485;51.536;3.816;2023-11-22T11:21:33;9.40;99.90
48686;DHT22;34485;51.536;3.816;2023-11-22T11:23:58;9.20;99.90
48686;DHT22;34485;51.536;3.816;2023-11-22T11:26:28;9.20;99.90
48686;DHT22;34485;51.536;3.816;2023-11-22T11:28:57;9.20;99.90
48686;DHT22;34485;51.536;3.816;2023-11-22T11:31:23;9.30;99.90
48686;DHT22;34485;51.536;3.816;2023-11-22T11:44:08;10.00;99.90
48686;DHT22;34485;51.536;3.816;2023-11-22T11:46:36;10.00;99.90
48686;DHT22;34485;51.536;3.816;2023-11-22T11:49:06;9.80;99.90
48686;DHT22;34485;51.536;3.816;2023-11-22T11:51:33;9.70;99.90
48686;DHT22;34485;51.536;3.816;2023-11-22T11:53:59;9.60;99.90
48686;DHT22;34485;51.536;3.816;2023-11-22T11:56:25;9.50;99.90
48686;DHT22;34485;51.536;3.816;2023-11-22T11:58:55;9.60;99.90
48686;DHT22;34485;51.536;3.816;2023-11-22T12:01:22;9.70;99.90
48686;DHT22;34485;51.536;3.816;2023-11-22T12:03:48;9.60;99.90
48686;DHT22;34485;51.536;3.816;2023-11-22T12:06:15;9.50;99.90
48686;DHT22;34485;51.536;3.816;2023-11-22T12:08:42;9.50;99.90
48686;DHT22;34485;51.536;3.816;2023-11-22T12:11:08;9.50;99.90
48686;DHT22;34485;51.536;3.816;2023-11-22T12:13:35;9.40;99.90
48686;DHT22;34485;51.536;3.816;2023-11-22T12:16:04;9.40;99.90
48686;DHT22;34485;51.536;3.816;2023-11-22T12:18:49;9.40;99.90
48686;DHT22;34485;51.536;3.816;2023-11-22T12:23:42;9.40;99.90
48686;DHT22;34485;51.536;3.816;2023-11-22T12:26:12;9.40;99.90
48686;DHT22;34485;51.536;3.816;2023-11-22T12:28:39;9.40;99.90
48686;DHT22;34485;51.536;3.816;2023-11-22T12:31:14;9.30;99.90
48686;DHT22;34485;51.536;3.816;2023-11-22T12:33:41;9.20;99.90
48686;DHT22;34485;51.536;3.816;2023-11-22T12:36:08;9.20;99.90
48686;DHT22;34485;51.536;3.816;2023-11-22T12:38:43;9.20;99.90
48686;DHT22;34485;51.536;3.816;2023-11-22T12:41:09;9.30;99.90
48686;DHT22;34485;51.536;3.816;2023-11-22T12:43:35;9.40;99.90
48686;DHT22;34485;51.536;3.816;2023-11-22T12:46:05;9.40;99.90
48686;DHT22;34485;51.536;3.816;2023-11-22T12:48:41;9.30;99.90
48686;DHT22;34485;51.536;3.816;2023-11-22T12:51:17;9.30;99.90
48686;DHT22;34485;51.536;3.816;2023-11-22T12:53:45;9.30;99.90
48686;DHT22;34485;51.536;3.816;2023-11-22T12:56:11;9.30;99.90
48686;DHT22;34485;51.536;3.816;2023-11-22T12:58:37;9.30;99.90
48686;DHT22;34485;51.536;3.816;2023-11-22T13:01:03;9.40;99.90
48686;DHT22;34485;51.536;3.816;2023-11-22T13:03:29;9.40;99.90
48686;DHT22;34485;51.536;3.816;2023-11-22T13:05:55;9.30;99.90
48686;DHT22;34485;51.536;3.816;2023-11-22T13:08:21;9.30;99.90
48686;DHT22;34485;51.536;3.816;2023-11-22T13:10:54;9.30;99.90
48686;DHT22;34485;51.536;3.816;2023-11-22T13:13:21;9.30;99.90
48686;DHT22;34485;51.536;3.816;2023-11-22T13:15:47;9.30;99.90
48686;DHT22;34485;51.536;3.816;2023-11-22T13:18:15;9.20;99.90
48686;DHT22;34485;51.536;3.816;2023-11-22T13:20:42;9.30;99.90
48686;DHT22;34485;51.536;3.816;2023-11-22T13:23:08;9.30;99.90
48686;DHT22;34485;51.536;3.816;2023-11-22T13:25:34;9.40;99.90
48686;DHT22;34485;51.536;3.816;2023-11-22T13:28:00;9.40;99.90
48686;DHT22;34485;51.536;3.816;2023-11-22T13:30:26;9.40;99.90
48686;DHT22;34485;51.536;3.816;2023-11-22T13:32:52;9.40;99.90
48686;DHT22;34485;51.536;3.816;2023-11-22T13:40:17;9.30;99.90
48686;DHT22;34485;51.536;3.816;2023-11-22T13:42:48;9.30;99.90
48686;DHT22;34485;51.536;3.816;2023-11-22T13:45:16;9.20;99.90
48686;DHT22;34485;51.536;3.816;2023-11-22T13:47:57;9.10;99.90
48686;DHT22;34485;51.536;3.816;2023-11-22T13:50:28;9.10;99.90
48686;DHT22;34485;51.536;3.816;2023-11-22T13:52:55;9.10;99.90
48686;DHT22;34485;51.536;3.816;2023-11-22T13:55:21;9.10;99.90
48686;DHT22;34485;51.536;3.816;2023-11-22T13:58:00;9.00;99.90
48686;DHT22;34485;51.536;3.816;2023-11-22T14:00:28;9.00;99.90
48686;DHT22;34485;51.536;3.816;2023-11-22T14:02:58;9.00;99.90
48686;DHT22;34485;51.536;3.816;2023-11-22T14:05:32;9.00;99.90
48686;DHT22;34485;51.536;3.816;2023-11-22T14:07:59;8.90;99.90
48686;DHT22;34485;51.536;3.816;2023-11-22T14:10:24;8.90;99.90
48686;DHT22;34485;51.536;3.816;2023-11-22T16:00:32;8.00;99.90
48686;DHT22;34485;51.536;3.816;2023-11-22T16:02:58;8.00;99.90
48686;DHT22;34485;51.536;3.816;2023-11-22T16:05:24;7.90;99.90
48686;DHT22;34485;51.536;3.816;2023-11-22T16:07:49;7.80;99.90
48686;DHT22;34485;51.536;3.816;2023-11-22T16:10:16;7.80;99.90
48686;DHT22;34485;51.536;3.816;2023-11-22T16:12:42;7.80;99.90
48686;DHT22;34485;51.536;3.816;2023-11-22T16:15:08;7.80;99.90
48686;DHT22;34485;51.536;3.816;2023-11-22T16:17:34;7.90;99.90
48686;DHT22;34485;51.536;3.816;2023-11-22T16:20:03;7.90;99.90
48686;DHT22;34485;51.536;3.816;2023-11-22T16:22:39;7.90;99.90
48686;DHT22;34485;51.536;3.816;2023-11-22T16:25:09;7.90;99.90
48686;DHT22;34485;51.536;3.816;2023-11-22T16:27:35;7.90;99.90
48686;DHT22;34485;51.536;3.816;2023-11-22T16:30:01;7.90;99.90
48686;DHT22;34485;51.536;3.816;2023-11-22T16:32:29;7.90;99.90
48686;DHT22;34485;51.536;3.816;2023-11-22T16:34:55;7.90;99.90
48686;DHT22;34485;51.536;3.816;2023-11-22T16:37:20;8.00;99.90
48686;DHT22;34485;51.536;3.816;2023-11-22T19:36:22;8.70;99.90
48686;DHT22;34485;51.536;3.816;2023-11-22T19:38:50;8.60;99.90
48686;DHT22;34485;51.536;3.816;2023-11-22T19:41:18;8.60;99.90
48686;DHT22;34485;51.536;3.816;2023-11-22T19:43:43;8.60;99.90
48686;DHT22;34485;51.536;3.816;2023-11-22T19:46:09;8.60;99.90
48686;DHT22;34485;51.536;3.816;2023-11-22T19:48:36;8.70;99.90
48686;DHT22;34485;51.536;3.816;2023-11-22T19:51:02;8.70;99.90
48686;DHT22;34485;51.536;3.816;2023-11-22T19:53:30;8.70;99.90
48686;DHT22;34485;51.536;3.816;2023-11-22T19:55:55;8.70;99.90
48686;DHT22;34485;51.536;3.816;2023-11-22T19:58:24;8.70;99.90
48686;DHT22;34485;51.536;3.816;2023-11-22T20:00:50;8.80;99.90
48686;DHT22;34485;51.536;3.816;2023-11-22T20:03:16;8.80;99.90
48686;DHT22;34485;51.536;3.816;2023-11-22T20:05:41;8.80;99.90
48686;DHT22;34485;51.536;3.816;2023-11-22T20:08:07;8.90;99.90
48686;DHT22;34485;51.536;3.816;2023-11-22T20:10:36;8.90;99.90
48686;DHT22;34485;51.536;3.816;2023-11-22T20:13:01;8.90;99.90
48686;DHT22;34485;51.536;3.816;2023-11-22T20:15:27;8.90;99.90
48686;DHT22;34485;51.536;3.816;2023-11-22T20:17:53;9.00;99.90
48686;DHT22;34485;51.536;3.816;2023-11-22T20:20:18;9.00;99.90
48686;DHT22;34485;51.536;3.816;2023-11-22T20:22:44;9.00;99.90
48686;DHT22;34485;51.536;3.816;2023-11-22T20:25:10;9.00;99.90
48686;DHT22;34485;51.536;3.816;2023-11-22T20:27:36;9.00;99.90
48686;DHT22;34485;51.536;3.816;2023-11-22T20:30:02;9.00;99.90
48686;DHT22;34485;51.536;3.816;2023-11-22T20:32:28;9.00;99.90
48686;DHT22;34485;51.536;3.816;2023-11-22T20:34:54;9.00;99.90
48686;DHT22;34485;51.536;3.816;2023-11-22T20:37:20;9.00;99.90
48686;DHT22;34485;51.536;3.816;2023-11-22T20:39:47;9.00;99.90
48686;DHT22;34485;51.536;3.816;2023-11-22T20:42:12;9.00;99.90
48686;DHT22;34485;51.536;3.816;2023-11-22T20:44:38;9.00;99.90
48686;DHT22;34485;51.536;3.816;2023-11-22T20:47:04;9.00;99.90
48686;DHT22;34485;51.536;3.816;2023-11-22T20:49:31;9.00;99.90
48686;DHT22;34485;51.536;3.816;2023-11-22T20:51:59;9.00;99.90
48686;DHT22;34485;51.536;3.816;2023-11-22T20:54:25;9.00;99.90
48686;DHT22;34485;51.536;3.816;2023-11-22T20:56:51;9.00;99.90
48686;DHT22;34485;51.536;3.816;2023-11-22T20:59:17;9.00;99.90
48686;DHT22;34485;51.536;3.816;2023-11-22T21:01:43;9.00;99.90
48686;DHT22;34485;51.536;3.816;2023-11-22T21:04:09;9.00;99.90
48686;DHT22;34485;51.536;3.816;2023-11-22T21:06:35;9.00;99.90
48686;DHT22;34485;51.536;3.816;2023-11-22T21:09:04;8.90;99.90
48686;DHT22;34485;51.536;3.816;2023-11-22T21:11:32;8.90;99.90
48686;DHT22;34485;51.536;3.816;2023-11-22T21:13:57;8.90;99.90
48686;DHT22;34485;51.536;3.816;2023-11-22T21:16:23;8.90;99.90
48686;DHT22;34485;51.536;3.816;2023-11-22T21:18:49;8.90;99.90
48686;DHT22;34485;51.536;3.816;2023-11-22T21:21:16;8.90;99.90
48686;DHT22;34485;51.536;3.816;2023-11-22T21:23:42;8.90;99.90
48686;DHT22;34485;51.536;3.816;2023-11-22T21:26:08;8.90;99.90
48686;DHT22;34485;51.536;3.816;2023-11-22T21:28:33;8.90;99.90
48686;DHT22;34485;51.536;3.816;2023-11-22T21:31:00;8.90;99.90
48686;DHT22;34485;51.536;3.816;2023-11-22T21:33:25;9.00;99.90
48686;DHT22;34485;51.536;3.816;2023-11-22T21:35:51;9.00;99.90
48686;DHT22;34485;51.536;3.816;2023-11-22T21:38:16;9.10;99.90
48686;DHT22;34485;51.536;3.816;2023-11-22T21:40:43;9.10;99.90
48686;DHT22;34485;51.536;3.816;2023-11-22T21:43:10;9.20;99.90
48686;DHT22;34485;51.536;3.816;2023-11-22T23:25:43;10.70;99.90
48686;DHT22;34485;51.536;3.816;2023-11-22T23:28:09;10.70;99.90
48686;DHT22;34485;51.536;3.816;2023-11-22T23:30:35;10.80;99.90
48686;DHT22;34485;51.536;3.816;2023-11-22T23:33:00;10.70;99.90
48686;DHT22;34485;51.536;3.816;2023-11-22T23:35:26;10.70;99.90
48686;DHT22;34485;51.536;3.816;2023-11-22T23:37:52;10.70;99.90
48686;DHT22;34485;51.536;3.816;2023-11-22T23:40:19;10.70;99.90
48686;DHT22;34485;51.536;3.816;2023-11-22T23:42:50;10.70;99.90
48686;DHT22;34485;51.536;3.816;2023-11-22T23:45:16;10.70;99.90
48686;DHT22;34485;51.536;3.816;2023-11-22T23:47:45;10.70;99.90
48686;DHT22;34485;51.536;3.816;2023-11-22T23:50:10;10.70;99.90
48686;DHT22;34485;51.536;3.816;2023-11-22T23:52:37;10.80;99.90
48686;DHT22;34485;51.536;3.816;2023-11-22T23:55:04;10.80;99.90
48686;DHT22;34485;51.536;3.816;2023-11-22T23:57:33;10.80;99.90
